sensor_id;sensor_type;location;lat;lon;timestamp;temperature;humidity
21830;DHT22;11077;50.264;6.798;2022-07-01T00:01:16;12.40;99.90
21830;DHT22;11077;50.264;6.798;2022-07-01T00:03:44;12.40;99.90
21830;DHT22;11077;50.264;6.798;2022-07-01T00:06:16;12.40;99.90
21830;DHT22;11077;50.264;6.798;2022-07-01T00:08:43;12.50;99.90
21830;DHT22;11077;50.264;6.798;2022-07-01T00:11:11;12.40;99.90
21830;DHT22;11077;50.264;6.798;2022-07-01T00:13:40;12.30;99.90
21830;DHT22;11077;50.264;6.798;2022-07-01T00:16:07;12.30;99.90
21830;DHT22;11077;50.264;6.798;2022-07-01T00:18:34;12.30;99.90
21830;DHT22;11077;50.264;6.798;2022-07-01T00:21:02;12.20;99.90
21830;DHT22;11077;50.264;6.798;2022-07-01T00:23:30;12.20;99.90
21830;DHT22;11077;50.264;6.798;2022-07-01T00:25:58;12.20;99.90
21830;DHT22;11077;50.264;6.798;2022-07-01T00:28:25;12.10;99.90
21830;DHT22;11077;50.264;6.798;2022-07-01T00:30:54;12.10;99.90
21830;DHT22;11077;50.264;6.798;2022-07-01T00:33:21;12.00;99.90
21830;DHT22;11077;50.264;6.798;2022-07-01T00:35:48;11.90;99.90
21830;DHT22;11077;50.264;6.798;2022-07-01T00:38:16;11.90;99.90
21830;DHT22;11077;50.264;6.798;2022-07-01T00:40:43;11.90;99.90
21830;DHT22;11077;50.264;6.798;2022-07-01T00:43:10;11.90;99.90
21830;DHT22;11077;50.264;6.798;2022-07-01T00:45:43;11.90;99.90
21830;DHT22;11077;50.264;6.798;2022-07-01T00:48:13;11.80;99.90
21830;DHT22;11077;50.264;6.798;2022-07-01T00:50:40;11.90;99.90
21830;DHT22;11077;50.264;6.798;2022-07-01T00:53:07;11.90;99.90
21830;DHT22;11077;50.264;6.798;2022-07-01T00:55:34;11.90;99.90
21830;DHT22;11077;50.264;6.798;2022-07-01T00:58:02;11.90;99.90
21830;DHT22;11077;50.264;6.798;2022-07-01T01:00:29;11.90;99.90
21830;DHT22;11077;50.264;6.798;2022-07-01T01:02:56;12.00;99.90
21830;DHT22;11077;50.264;6.798;2022-07-01T01:05:25;12.00;99.90
21830;DHT22;11077;50.264;6.798;2022-07-01T01:07:52;11.90;99.90
21830;DHT22;11077;50.264;6.798;2022-07-01T01:10:20;12.00;99.90
21830;DHT22;11077;50.264;6.798;2022-07-01T01:12:49;11.90;99.90
21830;DHT22;11077;50.264;6.798;2022-07-01T01:15:20;11.90;99.90
21830;DHT22;11077;50.264;6.798;2022-07-01T01:17:48;11.90;99.90
21830;DHT22;11077;50.264;6.798;2022-07-01T01:20:17;11.90;99.90
21830;DHT22;11077;50.264;6.798;2022-07-01T01:22:46;12.00;99.90
21830;DHT22;11077;50.264;6.798;2022-07-01T01:25:14;12.00;99.90
21830;DHT22;11077;50.264;6.798;2022-07-01T01:27:42;12.00;99.90
21830;DHT22;11077;50.264;6.798;2022-07-01T01:30:11;12.00;99.90
21830;DHT22;11077;50.264;6.798;2022-07-01T01:32:39;11.90;99.90
21830;DHT22;11077;50.264;6.798;2022-07-01T01:35:08;11.90;99.90
21830;DHT22;11077;50.264;6.798;2022-07-01T01:37:35;12.00;99.90
21830;DHT22;11077;50.264;6.798;2022-07-01T01:40:05;12.00;99.90
21830;DHT22;11077;50.264;6.798;2022-07-01T01:42:32;12.00;99.90
21830;DHT22;11077;50.264;6.798;2022-07-01T01:45:00;12.00;99.90
21830;DHT22;11077;50.264;6.798;2022-07-01T01:47:27;11.90;99.90
21830;DHT22;11077;50.264;6.798;2022-07-01T01:49:54;11.90;99.90
21830;DHT22;11077;50.264;6.798;2022-07-01T01:52:21;11.90;99.90
21830;DHT22;11077;50.264;6.798;2022-07-01T01:54:48;11.90;99.90
21830;DHT22;11077;50.264;6.798;2022-07-01T01:57:17;11.90;99.90
21830;DHT22;11077;50.264;6.798;2022-07-01T01:59:44;11.90;99.90
21830;DHT22;11077;50.264;6.798;2022-07-01T02:02:11;11.90;99.90
21830;DHT22;11077;50.264;6.798;2022-07-01T02:04:38;12.00;99.90
21830;DHT22;11077;50.264;6.798;2022-07-01T02:07:06;12.00;99.90
21830;DHT22;11077;50.264;6.798;2022-07-01T02:09:34;11.90;99.90
21830;DHT22;11077;50.264;6.798;2022-07-01T02:12:01;11.90;99.90
21830;DHT22;11077;50.264;6.798;2022-07-01T02:14:31;11.80;99.90
21830;DHT22;11077;50.264;6.798;2022-07-01T02:16:58;11.80;99.90
21830;DHT22;11077;50.264;6.798;2022-07-01T02:19:26;11.90;99.90
21830;DHT22;11077;50.264;6.798;2022-07-01T02:21:53;11.90;99.90
21830;DHT22;11077;50.264;6.798;2022-07-01T02:24:20;11.80;99.90
21830;DHT22;11077;50.264;6.798;2022-07-01T02:26:47;11.80;99.90
21830;DHT22;11077;50.264;6.798;2022-07-01T02:29:14;11.80;99.90
21830;DHT22;11077;50.264;6.798;2022-07-01T02:31:43;11.80;99.90
21830;DHT22;11077;50.264;6.798;2022-07-01T02:34:10;11.70;99.90
21830;DHT22;11077;50.264;6.798;2022-07-01T02:36:38;11.70;99.90
21830;DHT22;11077;50.264;6.798;2022-07-01T02:39:05;11.70;99.90
21830;DHT22;11077;50.264;6.798;2022-07-01T02:41:32;11.70;99.90
21830;DHT22;11077;50.264;6.798;2022-07-01T02:44:19;11.70;99.90
21830;DHT22;11077;50.264;6.798;2022-07-01T02:46:48;11.70;99.90
21830;DHT22;11077;50.264;6.798;2022-07-01T02:49:15;11.70;99.90
21830;DHT22;11077;50.264;6.798;2022-07-01T02:51:43;11.70;99.90
21830;DHT22;11077;50.264;6.798;2022-07-01T02:54:10;11.70;99.90
21830;DHT22;11077;50.264;6.798;2022-07-01T02:56:37;11.70;99.90
21830;DHT22;11077;50.264;6.798;2022-07-01T02:59:04;11.70;99.90
21830;DHT22;11077;50.264;6.798;2022-07-01T03:01:31;11.60;99.90
21830;DHT22;11077;50.264;6.798;2022-07-01T03:04:00;11.60;99.90
21830;DHT22;11077;50.264;6.798;2022-07-01T03:06:27;11.60;99.90
21830;DHT22;11077;50.264;6.798;2022-07-01T03:08:55;11.60;99.90
21830;DHT22;11077;50.264;6.798;2022-07-01T03:11:23;11.60;99.90
21830;DHT22;11077;50.264;6.798;2022-07-01T03:13:51;11.60;99.90
21830;DHT22;11077;50.264;6.798;2022-07-01T03:16:18;11.60;99.90
21830;DHT22;11077;50.264;6.798;2022-07-01T03:18:45;11.50;99.90
21830;DHT22;11077;50.264;6.798;2022-07-01T03:21:14;11.50;99.90
21830;DHT22;11077;50.264;6.798;2022-07-01T03:23:41;11.50;99.90
21830;DHT22;11077;50.264;6.798;2022-07-01T03:26:08;11.50;99.90
21830;DHT22;11077;50.264;6.798;2022-07-01T03:28:36;11.50;99.90
21830;DHT22;11077;50.264;6.798;2022-07-01T03:31:03;11.50;99.90
21830;DHT22;11077;50.264;6.798;2022-07-01T03:33:30;11.50;99.90
21830;DHT22;11077;50.264;6.798;2022-07-01T03:35:57;11.50;99.90
21830;DHT22;11077;50.264;6.798;2022-07-01T03:38:26;11.50;99.90
21830;DHT22;11077;50.264;6.798;2022-07-01T03:40:53;11.40;99.90
21830;DHT22;11077;50.264;6.798;2022-07-01T03:43:20;11.40;99.90
21830;DHT22;11077;50.264;6.798;2022-07-01T03:45:48;11.50;99.90
21830;DHT22;11077;50.264;6.798;2022-07-01T03:48:15;11.70;99.90
21830;DHT22;11077;50.264;6.798;2022-07-01T03:50:42;11.60;99.90
21830;DHT22;11077;50.264;6.798;2022-07-01T03:53:09;11.60;99.90
21830;DHT22;11077;50.264;6.798;2022-07-01T03:55:56;11.40;99.90
21830;DHT22;11077;50.264;6.798;2022-07-01T03:58:23;11.40;99.90
21830;DHT22;11077;50.264;6.798;2022-07-01T04:00:50;11.40;99.90
21830;DHT22;11077;50.264;6.798;2022-07-01T04:03:18;11.40;99.90
21830;DHT22;11077;50.264;6.798;2022-07-01T04:05:45;11.30;99.90
21830;DHT22;11077;50.264;6.798;2022-07-01T04:08:12;11.40;99.90
21830;DHT22;11077;50.264;6.798;2022-07-01T04:10:41;11.30;99.90
21830;DHT22;11077;50.264;6.798;2022-07-01T04:13:10;11.30;99.90
21830;DHT22;11077;50.264;6.798;2022-07-01T04:15:37;11.30;99.90
21830;DHT22;11077;50.264;6.798;2022-07-01T04:18:04;11.30;99.90
21830;DHT22;11077;50.264;6.798;2022-07-01T04:20:31;11.40;99.90
21830;DHT22;11077;50.264;6.798;2022-07-01T04:22:59;11.40;99.90
21830;DHT22;11077;50.264;6.798;2022-07-01T04:25:25;11.30;99.90
21830;DHT22;11077;50.264;6.798;2022-07-01T04:27:55;11.30;99.90
21830;DHT22;11077;50.264;6.798;2022-07-01T04:30:24;11.30;99.90
21830;DHT22;11077;50.264;6.798;2022-07-01T04:32:51;11.40;99.90
21830;DHT22;11077;50.264;6.798;2022-07-01T04:35:18;11.40;99.90
21830;DHT22;11077;50.264;6.798;2022-07-01T04:37:46;11.40;99.90
21830;DHT22;11077;50.264;6.798;2022-07-01T04:40:13;11.40;99.90
21830;DHT22;11077;50.264;6.798;2022-07-01T04:42:40;11.40;99.90
21830;DHT22;11077;50.264;6.798;2022-07-01T04:45:07;11.50;99.90
21830;DHT22;11077;50.264;6.798;2022-07-01T04:47:37;11.50;99.90
21830;DHT22;11077;50.264;6.798;2022-07-01T04:50:05;11.60;99.90
21830;DHT22;11077;50.264;6.798;2022-07-01T04:52:32;11.60;99.90
21830;DHT22;11077;50.264;6.798;2022-07-01T04:54:59;11.60;99.90
21830;DHT22;11077;50.264;6.798;2022-07-01T04:57:33;11.60;99.90
21830;DHT22;11077;50.264;6.798;2022-07-01T05:00:00;11.60;99.90
21830;DHT22;11077;50.264;6.798;2022-07-01T05:02:27;11.70;99.90
21830;DHT22;11077;50.264;6.798;2022-07-01T05:04:56;11.70;99.90
21830;DHT22;11077;50.264;6.798;2022-07-01T05:07:23;11.70;99.90
21830;DHT22;11077;50.264;6.798;2022-07-01T05:09:57;11.90;99.90
21830;DHT22;11077;50.264;6.798;2022-07-01T05:12:25;11.80;99.90
21830;DHT22;11077;50.264;6.798;2022-07-01T05:14:53;11.90;99.90
21830;DHT22;11077;50.264;6.798;2022-07-01T05:17:20;11.90;99.90
21830;DHT22;11077;50.264;6.798;2022-07-01T05:20:10;11.90;99.90
21830;DHT22;11077;50.264;6.798;2022-07-01T05:22:55;11.90;99.90
21830;DHT22;11077;50.264;6.798;2022-07-01T05:25:22;11.90;99.90
21830;DHT22;11077;50.264;6.798;2022-07-01T05:27:49;11.90;99.90
21830;DHT22;11077;50.264;6.798;2022-07-01T05:30:17;11.90;99.90
21830;DHT22;11077;50.264;6.798;2022-07-01T05:32:44;12.00;99.90
21830;DHT22;11077;50.264;6.798;2022-07-01T05:35:13;12.00;99.90
21830;DHT22;11077;50.264;6.798;2022-07-01T05:37:40;12.00;99.90
21830;DHT22;11077;50.264;6.798;2022-07-01T05:40:09;12.10;99.90
21830;DHT22;11077;50.264;6.798;2022-07-01T05:42:36;12.10;99.90
21830;DHT22;11077;50.264;6.798;2022-07-01T05:45:04;12.20;99.90
21830;DHT22;11077;50.264;6.798;2022-07-01T05:47:31;12.20;99.90
21830;DHT22;11077;50.264;6.798;2022-07-01T05:49:59;12.30;99.90
21830;DHT22;11077;50.264;6.798;2022-07-01T05:52:27;12.20;99.90
21830;DHT22;11077;50.264;6.798;2022-07-01T05:54:54;12.30;99.90
21830;DHT22;11077;50.264;6.798;2022-07-01T05:57:23;12.30;99.90
21830;DHT22;11077;50.264;6.798;2022-07-01T05:59:50;12.30;99.90
21830;DHT22;11077;50.264;6.798;2022-07-01T06:02:17;12.40;99.90
21830;DHT22;11077;50.264;6.798;2022-07-01T06:04:44;12.30;99.90
21830;DHT22;11077;50.264;6.798;2022-07-01T06:07:11;12.30;99.90
21830;DHT22;11077;50.264;6.798;2022-07-01T06:09:40;12.30;99.90
21830;DHT22;11077;50.264;6.798;2022-07-01T06:12:08;12.30;99.90
21830;DHT22;11077;50.264;6.798;2022-07-01T06:14:35;12.40;99.90
21830;DHT22;11077;50.264;6.798;2022-07-01T06:17:03;12.40;99.90
21830;DHT22;11077;50.264;6.798;2022-07-01T06:19:31;12.40;99.90
21830;DHT22;11077;50.264;6.798;2022-07-01T06:21:58;12.40;99.90
21830;DHT22;11077;50.264;6.798;2022-07-01T06:24:25;12.50;99.90
21830;DHT22;11077;50.264;6.798;2022-07-01T06:26:54;12.60;99.90
21830;DHT22;11077;50.264;6.798;2022-07-01T06:29:21;12.60;99.90
21830;DHT22;11077;50.264;6.798;2022-07-01T06:31:48;12.70;99.90
21830;DHT22;11077;50.264;6.798;2022-07-01T06:34:15;12.70;99.90
21830;DHT22;11077;50.264;6.798;2022-07-01T06:36:42;12.70;99.90
21830;DHT22;11077;50.264;6.798;2022-07-01T06:39:10;12.80;99.90
21830;DHT22;11077;50.264;6.798;2022-07-01T06:41:37;12.70;99.90
21830;DHT22;11077;50.264;6.798;2022-07-01T06:44:06;12.70;99.90
21830;DHT22;11077;50.264;6.798;2022-07-01T06:46:33;12.70;99.90
21830;DHT22;11077;50.264;6.798;2022-07-01T06:49:00;12.80;99.90
21830;DHT22;11077;50.264;6.798;2022-07-01T06:51:28;12.90;99.90
21830;DHT22;11077;50.264;6.798;2022-07-01T06:53:55;12.90;99.90
21830;DHT22;11077;50.264;6.798;2022-07-01T06:56:23;13.00;99.90
21830;DHT22;11077;50.264;6.798;2022-07-01T06:58:50;13.00;99.90
21830;DHT22;11077;50.264;6.798;2022-07-01T07:01:18;13.00;99.90
21830;DHT22;11077;50.264;6.798;2022-07-01T07:03:46;13.10;99.90
21830;DHT22;11077;50.264;6.798;2022-07-01T07:06:13;13.10;99.90
21830;DHT22;11077;50.264;6.798;2022-07-01T07:08:40;13.10;99.90
21830;DHT22;11077;50.264;6.798;2022-07-01T07:11:08;13.10;99.90
21830;DHT22;11077;50.264;6.798;2022-07-01T07:13:36;13.10;99.90
21830;DHT22;11077;50.264;6.798;2022-07-01T07:16:04;13.10;99.90
21830;DHT22;11077;50.264;6.798;2022-07-01T07:18:33;13.00;99.90
21830;DHT22;11077;50.264;6.798;2022-07-01T07:21:00;13.10;99.90
21830;DHT22;11077;50.264;6.798;2022-07-01T07:23:28;13.10;99.90
21830;DHT22;11077;50.264;6.798;2022-07-01T07:25:55;13.10;99.90
21830;DHT22;11077;50.264;6.798;2022-07-01T07:28:23;13.10;99.90
21830;DHT22;11077;50.264;6.798;2022-07-01T07:30:50;13.10;99.90
21830;DHT22;11077;50.264;6.798;2022-07-01T07:33:17;13.00;99.90
21830;DHT22;11077;50.264;6.798;2022-07-01T07:35:46;13.00;99.90
21830;DHT22;11077;50.264;6.798;2022-07-01T07:38:13;13.10;99.90
21830;DHT22;11077;50.264;6.798;2022-07-01T07:40:41;13.20;99.90
21830;DHT22;11077;50.264;6.798;2022-07-01T07:43:14;13.30;99.90
21830;DHT22;11077;50.264;6.798;2022-07-01T07:45:42;13.40;99.90
21830;DHT22;11077;50.264;6.798;2022-07-01T07:48:09;13.50;99.90
21830;DHT22;11077;50.264;6.798;2022-07-01T07:50:36;13.60;99.90
21830;DHT22;11077;50.264;6.798;2022-07-01T07:53:06;13.70;99.90
21830;DHT22;11077;50.264;6.798;2022-07-01T07:55:34;13.70;99.90
21830;DHT22;11077;50.264;6.798;2022-07-01T07:58:01;13.80;99.90
21830;DHT22;11077;50.264;6.798;2022-07-01T08:00:28;14.00;99.90
21830;DHT22;11077;50.264;6.798;2022-07-01T08:02:56;14.10;99.90
21830;DHT22;11077;50.264;6.798;2022-07-01T08:05:23;14.30;99.90
21830;DHT22;11077;50.264;6.798;2022-07-01T08:07:50;14.50;99.90
21830;DHT22;11077;50.264;6.798;2022-07-01T08:10:19;14.60;99.90
21830;DHT22;11077;50.264;6.798;2022-07-01T08:12:46;14.70;99.90
21830;DHT22;11077;50.264;6.798;2022-07-01T08:15:14;14.70;99.90
21830;DHT22;11077;50.264;6.798;2022-07-01T08:17:41;14.70;99.90
21830;DHT22;11077;50.264;6.798;2022-07-01T08:20:09;14.60;99.90
21830;DHT22;11077;50.264;6.798;2022-07-01T08:22:37;14.50;99.90
21830;DHT22;11077;50.264;6.798;2022-07-01T08:25:05;14.50;99.90
21830;DHT22;11077;50.264;6.798;2022-07-01T08:27:34;14.60;99.90
21830;DHT22;11077;50.264;6.798;2022-07-01T08:30:02;14.70;99.90
21830;DHT22;11077;50.264;6.798;2022-07-01T08:32:29;14.80;99.90
21830;DHT22;11077;50.264;6.798;2022-07-01T08:34:57;14.90;99.90
21830;DHT22;11077;50.264;6.798;2022-07-01T08:37:24;14.90;99.90
21830;DHT22;11077;50.264;6.798;2022-07-01T08:39:52;14.80;99.90
21830;DHT22;11077;50.264;6.798;2022-07-01T08:42:19;14.80;99.90
21830;DHT22;11077;50.264;6.798;2022-07-01T08:44:47;14.80;99.90
21830;DHT22;11077;50.264;6.798;2022-07-01T08:47:15;14.80;99.90
21830;DHT22;11077;50.264;6.798;2022-07-01T08:49:43;14.80;99.90
21830;DHT22;11077;50.264;6.798;2022-07-01T08:52:11;14.80;99.90
21830;DHT22;11077;50.264;6.798;2022-07-01T08:54:38;14.80;99.90
21830;DHT22;11077;50.264;6.798;2022-07-01T08:57:07;14.80;99.90
21830;DHT22;11077;50.264;6.798;2022-07-01T08:59:34;14.80;99.90
21830;DHT22;11077;50.264;6.798;2022-07-01T09:02:05;14.90;99.90
21830;DHT22;11077;50.264;6.798;2022-07-01T09:04:33;14.90;99.90
21830;DHT22;11077;50.264;6.798;2022-07-01T09:07:03;15.00;99.90
21830;DHT22;11077;50.264;6.798;2022-07-01T09:09:34;15.10;99.90
21830;DHT22;11077;50.264;6.798;2022-07-01T09:12:03;15.20;99.90
21830;DHT22;11077;50.264;6.798;2022-07-01T09:14:32;15.30;99.90
21830;DHT22;11077;50.264;6.798;2022-07-01T09:17:04;15.40;99.90
21830;DHT22;11077;50.264;6.798;2022-07-01T09:19:34;15.50;99.90
21830;DHT22;11077;50.264;6.798;2022-07-01T09:22:03;15.70;99.90
21830;DHT22;11077;50.264;6.798;2022-07-01T09:24:32;15.80;99.90
21830;DHT22;11077;50.264;6.798;2022-07-01T09:27:01;16.00;99.90
21830;DHT22;11077;50.264;6.798;2022-07-01T09:29:32;16.20;99.90
21830;DHT22;11077;50.264;6.798;2022-07-01T09:32:01;16.30;99.90
21830;DHT22;11077;50.264;6.798;2022-07-01T09:34:34;16.30;99.90
21830;DHT22;11077;50.264;6.798;2022-07-01T09:37:03;16.20;99.90
21830;DHT22;11077;50.264;6.798;2022-07-01T09:39:32;16.10;99.90
21830;DHT22;11077;50.264;6.798;2022-07-01T09:42:08;16.20;99.90
21830;DHT22;11077;50.264;6.798;2022-07-01T09:44:35;16.30;99.90
21830;DHT22;11077;50.264;6.798;2022-07-01T09:47:18;16.40;99.90
21830;DHT22;11077;50.264;6.798;2022-07-01T09:49:53;16.50;99.90
21830;DHT22;11077;50.264;6.798;2022-07-01T09:52:21;16.40;99.90
21830;DHT22;11077;50.264;6.798;2022-07-01T09:54:49;16.20;99.90
21830;DHT22;11077;50.264;6.798;2022-07-01T09:57:18;16.00;99.90
21830;DHT22;11077;50.264;6.798;2022-07-01T09:59:46;16.00;99.90
21830;DHT22;11077;50.264;6.798;2022-07-01T10:02:15;16.00;99.90
21830;DHT22;11077;50.264;6.798;2022-07-01T10:04:51;16.10;99.90
21830;DHT22;11077;50.264;6.798;2022-07-01T10:07:29;16.10;99.90
21830;DHT22;11077;50.264;6.798;2022-07-01T10:10:10;16.20;99.90
21830;DHT22;11077;50.264;6.798;2022-07-01T10:12:42;16.20;99.90
21830;DHT22;11077;50.264;6.798;2022-07-01T10:15:14;16.10;99.90
21830;DHT22;11077;50.264;6.798;2022-07-01T10:17:46;16.00;99.90
21830;DHT22;11077;50.264;6.798;2022-07-01T10:20:17;16.00;99.90
21830;DHT22;11077;50.264;6.798;2022-07-01T10:22:45;15.90;99.90
21830;DHT22;11077;50.264;6.798;2022-07-01T10:25:40;15.90;99.90
21830;DHT22;11077;50.264;6.798;2022-07-01T10:28:20;15.90;99.90
21830;DHT22;11077;50.264;6.798;2022-07-01T10:30:50;15.90;99.90
21830;DHT22;11077;50.264;6.798;2022-07-01T10:33:31;15.80;99.90
21830;DHT22;11077;50.264;6.798;2022-07-01T10:36:15;15.80;99.90
21830;DHT22;11077;50.264;6.798;2022-07-01T10:39:07;15.70;99.90
21830;DHT22;11077;50.264;6.798;2022-07-01T10:41:37;15.80;99.90
21830;DHT22;11077;50.264;6.798;2022-07-01T10:44:06;15.80;99.90
21830;DHT22;11077;50.264;6.798;2022-07-01T10:46:38;15.90;99.90
21830;DHT22;11077;50.264;6.798;2022-07-01T10:49:07;16.00;99.90
21830;DHT22;11077;50.264;6.798;2022-07-01T10:51:50;16.20;99.90
21830;DHT22;11077;50.264;6.798;2022-07-01T10:54:46;16.20;99.90
21830;DHT22;11077;50.264;6.798;2022-07-01T10:57:32;16.30;99.90
21830;DHT22;11077;50.264;6.798;2022-07-01T11:00:25;16.50;99.90
21830;DHT22;11077;50.264;6.798;2022-07-01T11:03:14;16.70;99.90
21830;DHT22;11077;50.264;6.798;2022-07-01T11:06:07;16.80;99.90
21830;DHT22;11077;50.264;6.798;2022-07-01T11:08:48;16.90;99.90
21830;DHT22;11077;50.264;6.798;2022-07-01T11:11:15;17.10;99.90
21830;DHT22;11077;50.264;6.798;2022-07-01T11:13:45;17.20;99.90
21830;DHT22;11077;50.264;6.798;2022-07-01T11:16:14;17.30;99.90
21830;DHT22;11077;50.264;6.798;2022-07-01T11:18:42;17.40;99.90
21830;DHT22;11077;50.264;6.798;2022-07-01T11:21:11;17.50;99.90
21830;DHT22;11077;50.264;6.798;2022-07-01T11:23:40;17.60;99.90
21830;DHT22;11077;50.264;6.798;2022-07-01T11:26:19;17.80;99.90
21830;DHT22;11077;50.264;6.798;2022-07-01T11:28:46;18.00;99.90
21830;DHT22;11077;50.264;6.798;2022-07-01T11:31:14;18.30;99.90
21830;DHT22;11077;50.264;6.798;2022-07-01T11:33:48;18.50;99.90
21830;DHT22;11077;50.264;6.798;2022-07-01T11:36:16;18.30;99.90
21830;DHT22;11077;50.264;6.798;2022-07-01T11:39:02;18.00;99.90
21830;DHT22;11077;50.264;6.798;2022-07-01T11:41:47;17.70;99.90
21830;DHT22;11077;50.264;6.798;2022-07-01T11:44:28;17.30;99.90
21830;DHT22;11077;50.264;6.798;2022-07-01T11:46:55;17.10;99.90
21830;DHT22;11077;50.264;6.798;2022-07-01T11:49:22;17.10;99.90
21830;DHT22;11077;50.264;6.798;2022-07-01T11:51:58;17.00;99.90
21830;DHT22;11077;50.264;6.798;2022-07-01T11:54:28;16.90;99.90
21830;DHT22;11077;50.264;6.798;2022-07-01T11:57:08;16.90;99.90
21830;DHT22;11077;50.264;6.798;2022-07-01T11:59:36;16.90;99.90
21830;DHT22;11077;50.264;6.798;2022-07-01T12:02:04;16.90;99.90
21830;DHT22;11077;50.264;6.798;2022-07-01T12:04:32;16.90;99.90
21830;DHT22;11077;50.264;6.798;2022-07-01T12:06:59;16.90;99.90
21830;DHT22;11077;50.264;6.798;2022-07-01T12:09:28;17.00;99.90
21830;DHT22;11077;50.264;6.798;2022-07-01T12:11:56;17.10;99.90
21830;DHT22;11077;50.264;6.798;2022-07-01T12:14:25;17.10;99.90
21830;DHT22;11077;50.264;6.798;2022-07-01T12:16:54;17.10;99.90
21830;DHT22;11077;50.264;6.798;2022-07-01T12:19:27;17.10;99.90
21830;DHT22;11077;50.264;6.798;2022-07-01T12:21:56;17.20;99.90
21830;DHT22;11077;50.264;6.798;2022-07-01T12:24:25;17.30;99.90
21830;DHT22;11077;50.264;6.798;2022-07-01T12:27:01;17.50;99.90
21830;DHT22;11077;50.264;6.798;2022-07-01T12:29:30;17.60;99.90
21830;DHT22;11077;50.264;6.798;2022-07-01T12:31:59;17.80;99.90
21830;DHT22;11077;50.264;6.798;2022-07-01T12:34:39;17.90;99.90
21830;DHT22;11077;50.264;6.798;2022-07-01T12:37:09;18.00;99.90
21830;DHT22;11077;50.264;6.798;2022-07-01T12:39:43;18.20;99.90
21830;DHT22;11077;50.264;6.798;2022-07-01T12:42:22;18.20;99.90
21830;DHT22;11077;50.264;6.798;2022-07-01T12:44:50;18.20;99.90
21830;DHT22;11077;50.264;6.798;2022-07-01T12:47:19;18.20;99.90
21830;DHT22;11077;50.264;6.798;2022-07-01T12:49:47;18.30;99.90
21830;DHT22;11077;50.264;6.798;2022-07-01T12:52:25;18.40;99.90
21830;DHT22;11077;50.264;6.798;2022-07-01T12:54:56;18.60;99.90
21830;DHT22;11077;50.264;6.798;2022-07-01T12:57:32;18.60;99.90
21830;DHT22;11077;50.264;6.798;2022-07-01T13:00:00;18.60;99.90
21830;DHT22;11077;50.264;6.798;2022-07-01T13:02:27;18.50;99.90
21830;DHT22;11077;50.264;6.798;2022-07-01T13:04:55;18.50;99.90
21830;DHT22;11077;50.264;6.798;2022-07-01T13:07:22;18.70;99.90
21830;DHT22;11077;50.264;6.798;2022-07-01T13:09:50;18.80;99.90
21830;DHT22;11077;50.264;6.798;2022-07-01T13:12:17;18.80;99.90
21830;DHT22;11077;50.264;6.798;2022-07-01T13:14:47;18.90;99.90
21830;DHT22;11077;50.264;6.798;2022-07-01T13:17:14;18.90;99.90
21830;DHT22;11077;50.264;6.798;2022-07-01T13:19:41;19.00;99.90
21830;DHT22;11077;50.264;6.798;2022-07-01T13:22:11;19.00;99.90
21830;DHT22;11077;50.264;6.798;2022-07-01T13:24:38;19.00;99.90
21830;DHT22;11077;50.264;6.798;2022-07-01T13:27:06;19.00;99.90
21830;DHT22;11077;50.264;6.798;2022-07-01T13:29:34;18.90;99.90
21830;DHT22;11077;50.264;6.798;2022-07-01T13:32:03;18.70;99.90
21830;DHT22;11077;50.264;6.798;2022-07-01T13:34:32;18.50;99.90
21830;DHT22;11077;50.264;6.798;2022-07-01T13:37:00;18.40;99.90
21830;DHT22;11077;50.264;6.798;2022-07-01T13:39:28;18.40;99.90
21830;DHT22;11077;50.264;6.798;2022-07-01T13:41:55;18.20;99.90
21830;DHT22;11077;50.264;6.798;2022-07-01T13:44:23;18.30;99.90
21830;DHT22;11077;50.264;6.798;2022-07-01T13:46:50;18.40;99.90
21830;DHT22;11077;50.264;6.798;2022-07-01T13:49:19;18.50;99.90
21830;DHT22;11077;50.264;6.798;2022-07-01T13:51:46;18.60;99.90
21830;DHT22;11077;50.264;6.798;2022-07-01T13:54:14;18.60;99.90
21830;DHT22;11077;50.264;6.798;2022-07-01T13:56:41;18.50;99.90
21830;DHT22;11077;50.264;6.798;2022-07-01T13:59:11;18.40;99.90
21830;DHT22;11077;50.264;6.798;2022-07-01T14:01:38;18.60;99.90
21830;DHT22;11077;50.264;6.798;2022-07-01T14:04:06;18.70;99.90
21830;DHT22;11077;50.264;6.798;2022-07-01T14:06:34;18.70;99.90
21830;DHT22;11077;50.264;6.798;2022-07-01T14:09:02;18.90;99.90
21830;DHT22;11077;50.264;6.798;2022-07-01T14:11:29;18.80;99.90
21830;DHT22;11077;50.264;6.798;2022-07-01T14:13:57;18.70;99.60
21830;DHT22;11077;50.264;6.798;2022-07-01T14:16:24;18.70;99.90
21830;DHT22;11077;50.264;6.798;2022-07-01T14:18:55;18.70;99.90
21830;DHT22;11077;50.264;6.798;2022-07-01T14:21:24;18.70;99.90
21830;DHT22;11077;50.264;6.798;2022-07-01T14:23:54;18.80;99.90
21830;DHT22;11077;50.264;6.798;2022-07-01T14:26:21;19.00;99.90
21830;DHT22;11077;50.264;6.798;2022-07-01T14:28:49;19.00;99.90
21830;DHT22;11077;50.264;6.798;2022-07-01T14:31:18;18.80;99.90
21830;DHT22;11077;50.264;6.798;2022-07-01T14:33:45;18.70;99.90
21830;DHT22;11077;50.264;6.798;2022-07-01T14:36:13;18.60;99.90
21830;DHT22;11077;50.264;6.798;2022-07-01T14:38:41;18.60;99.90
21830;DHT22;11077;50.264;6.798;2022-07-01T14:41:10;18.60;99.90
21830;DHT22;11077;50.264;6.798;2022-07-01T14:43:37;18.70;99.90
21830;DHT22;11077;50.264;6.798;2022-07-01T14:46:04;18.70;99.90
21830;DHT22;11077;50.264;6.798;2022-07-01T14:48:38;18.70;99.90
21830;DHT22;11077;50.264;6.798;2022-07-01T14:51:05;18.60;99.90
21830;DHT22;11077;50.264;6.798;2022-07-01T14:53:36;18.50;99.90
21830;DHT22;11077;50.264;6.798;2022-07-01T14:56:06;18.50;99.90
21830;DHT22;11077;50.264;6.798;2022-07-01T14:58:37;18.30;99.90
21830;DHT22;11077;50.264;6.798;2022-07-01T15:01:08;18.10;99.90
21830;DHT22;11077;50.264;6.798;2022-07-01T15:03:36;18.00;99.90
21830;DHT22;11077;50.264;6.798;2022-07-01T15:06:04;18.00;99.90
21830;DHT22;11077;50.264;6.798;2022-07-01T15:08:34;18.00;99.90
21830;DHT22;11077;50.264;6.798;2022-07-01T15:11:03;18.00;99.90
21830;DHT22;11077;50.264;6.798;2022-07-01T15:13:30;18.00;99.90
21830;DHT22;11077;50.264;6.798;2022-07-01T15:15:59;18.00;99.90
21830;DHT22;11077;50.264;6.798;2022-07-01T15:18:27;18.00;99.90
21830;DHT22;11077;50.264;6.798;2022-07-01T15:20:55;18.20;99.90
21830;DHT22;11077;50.264;6.798;2022-07-01T15:23:23;18.30;99.90
21830;DHT22;11077;50.264;6.798;2022-07-01T15:25:57;18.30;99.90
21830;DHT22;11077;50.264;6.798;2022-07-01T15:28:29;18.30;99.90
21830;DHT22;11077;50.264;6.798;2022-07-01T15:31:01;18.30;99.90
21830;DHT22;11077;50.264;6.798;2022-07-01T15:33:29;18.30;99.90
21830;DHT22;11077;50.264;6.798;2022-07-01T15:35:59;18.20;99.90
21830;DHT22;11077;50.264;6.798;2022-07-01T15:38:27;18.10;99.90
21830;DHT22;11077;50.264;6.798;2022-07-01T15:40:54;18.00;99.90
21830;DHT22;11077;50.264;6.798;2022-07-01T15:43:24;18.00;99.90